Time;durP1;ratioP1;P1;durP2;ratioP2;P2;SDS_P1;SDS_P2;PMS_P1;PMS_P2;Temp;Humidity;BMP_temperature;BMP_pressure;BME280_temperature;BME280_humidity;BME280_pressure;Samples;Min_cycle;Max_cycle;Signal;HPM_P1;HPM_P2
2024/01/06 00:01:20;;;;;;;12.23;5.30;;;6.90;99.90;;;;;;5047131;28;20036;-75
2024/01/06 00:03:46;;;;;;;11.30;4.80;;;7.00;99.90;;;;;;5050806;28;20436;-75
2024/01/06 00:06:13;;;;;;;10.23;4.70;;;6.90;99.90;;;;;;5049581;28;20502;-75
2024/01/06 00:08:39;;;;;;;10.77;4.82;;;7.00;99.90;;;;;;5049888;28;20040;-75
2024/01/06 00:11:05;;;;;;;7.95;3.83;;;7.00;99.90;;;;;;5048079;28;20025;-75
2024/01/06 00:13:39;;;;;;;8.70;3.95;;;6.90;99.90;;;;;;5051123;28;20119;-75
2024/01/06 00:16:05;;;;;;;10.10;4.93;;;7.00;99.90;;;;;;5049647;28;20053;-75
2024/01/06 00:18:31;;;;;;;11.82;5.88;;;7.00;99.90;;;;;;5050695;28;20076;-75
2024/01/06 00:20:56;;;;;;;10.50;4.85;;;7.00;99.90;;;;;;5049067;28;20028;-75
2024/01/06 00:23:22;;;;;;;9.25;5.07;;;7.00;99.90;;;;;;5047870;28;20078;-75
2024/01/06 00:25:51;;;;;;;14.93;5.88;;;7.00;99.90;;;;;;5046731;28;20037;-75
2024/01/06 00:28:22;;;;;;;12.32;6.60;;;7.00;99.90;;;;;;5044923;28;20487;-75
2024/01/06 00:30:54;;;;;;;11.60;4.85;;;7.00;99.90;;;;;;5048735;28;20039;-75
2024/01/06 00:33:20;;;;;;;9.50;5.22;;;7.00;99.90;;;;;;5047651;28;20060;-75
2024/01/06 00:35:46;;;;;;;17.98;7.57;;;7.10;99.90;;;;;;5050306;28;20025;-74
2024/01/06 00:38:21;;;;;;;12.77;5.70;;;7.10;99.90;;;;;;5047528;28;20040;-74
2024/01/06 00:40:46;;;;;;;12.70;5.07;;;7.10;99.90;;;;;;5047263;28;20025;-74
2024/01/06 00:43:15;;;;;;;8.02;4.13;;;7.10;99.90;;;;;;5048936;28;20499;-75
2024/01/06 00:45:41;;;;;;;14.38;5.18;;;7.10;99.90;;;;;;5045916;28;20487;-74
2024/01/06 00:48:13;;;;;;;10.10;4.68;;;7.20;99.90;;;;;;5049633;28;20029;-75
2024/01/06 00:50:38;;;;;;;8.60;4.65;;;7.20;99.90;;;;;;5049678;28;20104;-74
2024/01/06 00:53:04;;;;;;;9.57;5.28;;;7.20;99.90;;;;;;5050344;28;20128;-75
2024/01/06 00:55:29;;;;;;;14.07;5.75;;;7.20;99.90;;;;;;5050381;28;20033;-76
2024/01/06 00:57:55;;;;;;;12.02;6.53;;;7.20;99.90;;;;;;5044384;28;20029;-75
2024/01/06 01:00:21;;;;;;;13.52;7.25;;;7.20;99.90;;;;;;5048577;28;20025;-74
2024/01/06 01:02:46;;;;;;;13.70;7.50;;;7.20;99.90;;;;;;5044596;28;20448;-74
2024/01/06 01:05:12;;;;;;;14.45;8.75;;;7.20;99.90;;;;;;5047558;28;20021;-73
2024/01/06 01:07:40;;;;;;;13.73;7.70;;;7.20;99.90;;;;;;5049136;28;20348;-75
2024/01/06 01:10:06;;;;;;;14.73;7.28;;;7.20;99.90;;;;;;5047762;28;20036;-74
2024/01/06 01:12:32;;;;;;;12.75;6.85;;;7.20;99.90;;;;;;5049529;28;20033;-74
2024/01/06 01:14:57;;;;;;;11.75;6.90;;;7.20;99.90;;;;;;5047652;28;20105;-75
2024/01/06 01:17:26;;;;;;;12.63;6.82;;;7.20;99.90;;;;;;5048224;28;20447;-74
2024/01/06 01:19:52;;;;;;;10.80;6.30;;;7.20;99.90;;;;;;5046475;28;20541;-73
2024/01/06 01:22:17;;;;;;;10.43;5.57;;;7.20;99.90;;;;;;5048519;28;20053;-73
2024/01/06 01:24:46;;;;;;;14.20;6.68;;;7.20;99.90;;;;;;5049816;28;20096;-73
2024/01/06 01:27:12;;;;;;;10.98;6.80;;;7.20;99.90;;;;;;5049671;28;20079;-75
2024/01/06 01:29:40;;;;;;;11.27;6.55;;;7.20;99.90;;;;;;5048844;28;20053;-75
2024/01/06 01:32:06;;;;;;;12.30;6.63;;;7.20;99.90;;;;;;5046676;28;20485;-74
2024/01/06 01:34:31;;;;;;;12.13;7.35;;;7.20;99.90;;;;;;5047317;28;20033;-75
2024/01/06 01:36:57;;;;;;;12.57;7.13;;;7.20;99.90;;;;;;5048002;28;20028;-74
2024/01/06 01:39:23;;;;;;;12.45;6.05;;;7.20;99.90;;;;;;5046877;28;20024;-75
2024/01/06 01:41:48;;;;;;;14.18;5.22;;;7.20;99.90;;;;;;5049136;28;20495;-76
2024/01/06 01:44:17;;;;;;;9.35;5.03;;;7.20;99.90;;;;;;5047257;28;20017;-75
2024/01/06 01:46:43;;;;;;;7.47;4.40;;;7.20;99.90;;;;;;5052367;28;20040;-76
2024/01/06 01:49:08;;;;;;;10.38;4.80;;;7.20;99.90;;;;;;5049877;28;21005;-77
2024/01/06 01:51:35;;;;;;;8.48;4.53;;;7.20;99.90;;;;;;5047466;28;20420;-76
2024/01/06 01:54:05;;;;;;;7.65;3.90;;;7.20;99.90;;;;;;5038804;28;20121;-75
2024/01/06 01:56:35;;;;;;;7.88;3.70;;;7.20;99.90;;;;;;5048145;28;20028;-75
2024/01/06 01:59:09;;;;;;;8.95;3.25;;;7.20;99.90;;;;;;5048076;28;20078;-75
2024/01/06 02:01:38;;;;;;;6.30;3.78;;;7.20;99.90;;;;;;5049431;28;20051;-75
2024/01/06 02:04:03;;;;;;;6.72;3.85;;;7.20;99.90;;;;;;5051962;28;20052;-75
2024/01/06 02:06:29;;;;;;;7.03;3.72;;;7.20;99.90;;;;;;5044361;28;20514;-75
2024/01/06 02:08:55;;;;;;;7.47;3.13;;;7.20;99.90;;;;;;5044059;28;20396;-74
2024/01/06 02:11:20;;;;;;;5.50;3.38;;;7.20;99.90;;;;;;5047952;28;20064;-75
2024/01/06 02:13:46;;;;;;;6.18;3.35;;;7.10;99.90;;;;;;5047131;28;20033;-75
2024/01/06 02:16:12;;;;;;;5.63;2.85;;;7.10;99.90;;;;;;5046624;28;20028;-74
2024/01/06 02:18:37;;;;;;;5.28;2.92;;;7.10;99.90;;;;;;5049725;28;20104;-75
2024/01/06 02:21:09;;;;;;;7.70;3.25;;;7.10;99.90;;;;;;5047496;28;20048;-75
2024/01/06 02:23:36;;;;;;;6.00;3.60;;;7.10;99.90;;;;;;5046123;28;20057;-75
2024/01/06 02:26:03;;;;;;;7.88;3.33;;;7.10;99.90;;;;;;5047700;28;20025;-75
2024/01/06 02:28:28;;;;;;;6.03;3.33;;;7.10;99.90;;;;;;5045114;28;20026;-75
2024/01/06 02:30:54;;;;;;;6.97;3.63;;;7.10;99.90;;;;;;5046796;28;20029;-74
2024/01/06 02:33:20;;;;;;;7.90;3.55;;;7.00;99.90;;;;;;5048607;28;20561;-74
2024/01/06 02:35:48;;;;;;;12.40;3.65;;;7.00;99.90;;;;;;5050511;28;20048;-76
2024/01/06 02:38:14;;;;;;;7.32;3.45;;;7.00;99.90;;;;;;5049417;28;20036;-77
2024/01/06 02:40:43;;;;;;;5.68;3.20;;;7.00;99.90;;;;;;5058831;28;20044;-75
2024/01/06 02:43:09;;;;;;;5.78;3.00;;;7.00;99.90;;;;;;5056658;28;20024;-76
2024/01/06 02:45:38;;;;;;;8.32;3.72;;;7.00;99.90;;;;;;5056466;28;20025;-75
2024/01/06 02:48:10;;;;;;;7.85;3.13;;;7.00;99.90;;;;;;5055265;28;20423;-75
2024/01/06 02:50:41;;;;;;;8.05;3.30;;;7.00;99.90;;;;;;5057507;28;20044;-75
2024/01/06 02:53:07;;;;;;;7.95;3.22;;;7.00;99.90;;;;;;5056795;28;20136;-76
2024/01/06 02:55:32;;;;;;;8.70;3.08;;;7.00;99.90;;;;;;5057261;28;20060;-75
2024/01/06 02:57:58;;;;;;;8.48;2.92;;;7.00;99.90;;;;;;5058335;28;20028;-74
2024/01/06 03:00:23;;;;;;;6.88;3.35;;;7.00;99.90;;;;;;5055658;28;20025;-76
2024/01/06 03:02:49;;;;;;;5.32;3.17;;;7.10;99.90;;;;;;5055173;28;20025;-75
2024/01/06 03:05:15;;;;;;;6.50;3.38;;;7.10;99.90;;;;;;5058512;28;20029;-76
2024/01/06 03:07:46;;;;;;;5.60;2.75;;;7.00;99.90;;;;;;5059186;28;20484;-75
2024/01/06 03:10:12;;;;;;;9.48;3.50;;;7.00;99.90;;;;;;5055878;28;20029;-75
2024/01/06 03:12:37;;;;;;;8.90;3.25;;;7.00;99.90;;;;;;5053560;28;20089;-75
2024/01/06 03:15:04;;;;;;;8.82;3.97;;;7.00;99.90;;;;;;5058910;28;20021;-73
2024/01/06 03:17:29;;;;;;;9.23;3.45;;;7.00;99.90;;;;;;5054015;28;20032;-75
2024/01/06 03:19:55;;;;;;;7.82;2.97;;;7.00;99.90;;;;;;5061136;28;20028;-76
2024/01/06 03:22:24;;;;;;;5.43;2.95;;;7.00;99.90;;;;;;5049825;28;20021;-76
2024/01/06 03:24:49;;;;;;;8.13;2.83;;;6.90;99.90;;;;;;5058680;28;20024;-75
2024/01/06 03:27:15;;;;;;;6.10;3.10;;;6.90;99.90;;;;;;5057815;28;20029;-75
2024/01/06 03:29:43;;;;;;;8.85;3.00;;;6.90;99.90;;;;;;5055705;28;20502;-75
2024/01/06 03:32:12;;;;;;;8.40;2.90;;;6.90;99.90;;;;;;5056019;28;20025;-76
2024/01/06 03:34:37;;;;;;;5.35;2.90;;;6.90;99.90;;;;;;5056093;28;20376;-75
2024/01/06 03:37:06;;;;;;;5.57;3.03;;;6.80;99.90;;;;;;5057846;28;20039;-76
2024/01/06 03:39:32;;;;;;;5.75;2.80;;;6.90;99.90;;;;;;5056097;28;20043;-76
2024/01/06 03:41:57;;;;;;;4.65;2.63;;;6.90;99.90;;;;;;5051719;28;20032;-75
2024/01/06 03:44:23;;;;;;;6.85;2.55;;;6.90;99.90;;;;;;5052068;28;20033;-76
2024/01/06 03:46:51;;;;;;;5.38;2.75;;;6.80;99.90;;;;;;5051409;28;20021;-75
2024/01/06 03:49:27;;;;;;;6.00;2.78;;;6.80;99.90;;;;;;5052753;28;20661;-76
2024/01/06 03:51:56;;;;;;;7.15;2.80;;;6.90;99.90;;;;;;5050068;28;20028;-76
2024/01/06 03:54:22;;;;;;;6.63;2.95;;;6.80;99.90;;;;;;5046582;28;20025;-75
2024/01/06 03:56:48;;;;;;;6.43;2.88;;;6.90;99.90;;;;;;5055798;28;20052;-75
2024/01/06 03:59:13;;;;;;;6.75;2.85;;;6.80;99.90;;;;;;5050687;28;20025;-75
2024/01/06 04:01:39;;;;;;;7.50;2.78;;;6.80;99.90;;;;;;5053103;28;20025;-75
2024/01/06 04:04:05;;;;;;;4.13;2.20;;;6.80;99.90;;;;;;5051634;28;20029;-74
2024/01/06 04:06:34;;;;;;;7.50;2.80;;;6.80;99.90;;;;;;5052476;28;20048;-74
2024/01/06 04:09:00;;;;;;;6.07;2.67;;;6.70;99.90;;;;;;5049966;28;20033;-74
2024/01/06 04:11:26;;;;;;;7.72;2.40;;;6.80;99.90;;;;;;5049260;28;20029;-75
2024/01/06 04:13:54;;;;;;;7.25;2.60;;;6.70;99.90;;;;;;5051204;28;20029;-75
2024/01/06 04:16:20;;;;;;;7.93;2.55;;;6.80;99.90;;;;;;5048706;28;20530;-76
2024/01/06 04:18:45;;;;;;;6.43;2.47;;;6.70;99.90;;;;;;5049735;28;20029;-75
2024/01/06 04:21:11;;;;;;;6.28;2.40;;;6.70;99.90;;;;;;5050566;28;20434;-76
2024/01/06 04:23:37;;;;;;;6.75;2.25;;;6.70;99.90;;;;;;5047561;28;20020;-76
2024/01/06 04:26:04;;;;;;;4.25;1.70;;;6.80;99.90;;;;;;5052921;28;20091;-75
2024/01/06 04:28:30;;;;;;;4.43;1.90;;;6.70;99.90;;;;;;5050923;28;20028;-76
2024/01/06 04:30:56;;;;;;;11.82;2.42;;;6.70;99.90;;;;;;5049002;28;20364;-76
2024/01/06 04:33:21;;;;;;;5.43;2.20;;;6.70;99.90;;;;;;5050363;28;20086;-77
2024/01/06 04:35:53;;;;;;;5.93;2.53;;;6.70;99.90;;;;;;5051149;28;20029;-76
2024/01/06 04:38:19;;;;;;;5.80;2.10;;;6.70;99.90;;;;;;5051184;28;20057;-75
2024/01/06 04:40:44;;;;;;;4.63;2.45;;;6.70;99.90;;;;;;5061694;28;20119;-76
2024/01/06 04:43:10;;;;;;;4.13;1.60;;;6.60;99.90;;;;;;5048992;28;20055;-76
2024/01/06 04:45:37;;;;;;;7.22;1.75;;;6.60;99.90;;;;;;5048773;28;20022;-76
2024/01/06 04:48:09;;;;;;;6.15;2.60;;;6.60;99.90;;;;;;5050716;28;20056;-76
2024/01/06 04:50:37;;;;;;;6.85;2.03;;;6.60;99.90;;;;;;5049353;28;20504;-76
2024/01/06 04:53:03;;;;;;;3.92;1.90;;;6.60;99.90;;;;;;5050112;28;20082;-76
2024/01/06 04:55:28;;;;;;;5.28;2.20;;;6.60;99.90;;;;;;5049236;28;20033;-75
2024/01/06 04:57:54;;;;;;;4.00;1.60;;;6.60;99.90;;;;;;5052453;28;20442;-75
2024/01/06 05:00:19;;;;;;;7.90;2.20;;;6.60;99.90;;;;;;5051150;28;20021;-75
2024/01/06 05:02:45;;;;;;;5.80;1.42;;;6.60;99.90;;;;;;5047966;28;20033;-75
2024/01/06 05:05:11;;;;;;;7.03;1.40;;;6.60;99.90;;;;;;5049821;28;20100;-75
2024/01/06 05:07:36;;;;;;;3.67;1.67;;;6.60;99.90;;;;;;5050135;28;20492;-75
2024/01/06 05:10:02;;;;;;;4.57;1.70;;;6.50;99.90;;;;;;5049843;28;20033;-75
2024/01/06 05:12:28;;;;;;;5.40;1.73;;;6.50;99.90;;;;;;5052113;28;20024;-75
2024/01/06 05:14:56;;;;;;;6.43;2.17;;;6.50;99.90;;;;;;5051301;28;20071;-76
2024/01/06 05:17:24;;;;;;;3.17;1.27;;;6.50;99.90;;;;;;5047866;28;20043;-75
2024/01/06 05:19:50;;;;;;;6.38;1.70;;;6.50;99.90;;;;;;5050991;28;20035;-75
2024/01/06 05:22:15;;;;;;;3.08;1.58;;;6.50;99.90;;;;;;5044681;28;20139;-76
2024/01/06 05:24:41;;;;;;;4.60;1.55;;;6.50;99.90;;;;;;5050919;28;20041;-74
2024/01/06 05:27:07;;;;;;;4.63;2.22;;;6.50;99.90;;;;;;5045678;28;20035;-75
2024/01/06 05:29:32;;;;;;;4.53;1.65;;;6.50;99.90;;;;;;5049383;28;20481;-76
2024/01/06 05:32:01;;;;;;;6.90;1.85;;;6.50;99.90;;;;;;5050167;28;20045;-75
2024/01/06 05:34:27;;;;;;;4.88;1.30;;;6.50;99.90;;;;;;5046037;28;20086;-75
2024/01/06 05:36:53;;;;;;;2.75;1.25;;;6.50;99.90;;;;;;5051303;28;20464;-75
2024/01/06 05:39:25;;;;;;;3.83;1.33;;;6.50;99.90;;;;;;5050320;28;20032;-75
2024/01/06 05:41:53;;;;;;;5.15;1.63;;;6.40;99.90;;;;;;5045685;28;20025;-75
2024/01/06 05:44:22;;;;;;;3.80;1.15;;;6.40;99.90;;;;;;5048157;28;20056;-75
2024/01/06 05:46:47;;;;;;;4.53;1.40;;;6.50;99.90;;;;;;5051315;28;20029;-75
2024/01/06 05:49:16;;;;;;;4.75;1.50;;;6.40;99.90;;;;;;5050814;28;20499;-76
2024/01/06 05:51:45;;;;;;;6.30;2.25;;;6.50;99.90;;;;;;5051765;28;20029;-76
2024/01/06 05:54:11;;;;;;;6.63;1.98;;;6.50;99.90;;;;;;5050561;28;20184;-76
2024/01/06 05:56:42;;;;;;;4.82;1.50;;;6.50;99.90;;;;;;5051259;28;20124;-74
2024/01/06 05:59:08;;;;;;;6.53;1.92;;;6.50;99.90;;;;;;5046400;28;20583;-76
2024/01/06 06:01:33;;;;;;;6.32;2.35;;;6.50;99.90;;;;;;5050836;28;20099;-75
2024/01/06 06:03:59;;;;;;;6.93;1.50;;;6.50;99.90;;;;;;5046556;28;20028;-76
2024/01/06 06:06:28;;;;;;;3.17;1.75;;;6.50;99.90;;;;;;5048404;28;20414;-75
2024/01/06 06:08:56;;;;;;;3.35;1.30;;;6.50;99.90;;;;;;5046799;28;20510;-76
2024/01/06 06:11:25;;;;;;;6.20;1.50;;;6.50;99.90;;;;;;5046774;28;20105;-76
2024/01/06 06:13:50;;;;;;;6.13;1.55;;;6.50;99.90;;;;;;5051480;28;20067;-75
2024/01/06 06:16:16;;;;;;;4.45;1.27;;;6.50;99.90;;;;;;5049641;28;20414;-76
2024/01/06 06:18:41;;;;;;;4.65;1.40;;;6.50;99.90;;;;;;5049913;28;20036;-75
2024/01/06 06:21:07;;;;;;;2.13;0.90;;;6.50;99.90;;;;;;5047678;28;20106;-75
2024/01/06 06:23:34;;;;;;;4.30;1.45;;;6.60;99.90;;;;;;5049582;28;20017;-75
2024/01/06 06:26:03;;;;;;;4.28;1.38;;;6.50;99.90;;;;;;5048931;28;20031;-74
2024/01/06 06:28:28;;;;;;;5.28;1.33;;;6.50;99.90;;;;;;5046711;28;20111;-75
2024/01/06 06:30:57;;;;;;;2.53;1.08;;;6.50;99.90;;;;;;5049334;28;20565;-74
2024/01/06 06:33:29;;;;;;;5.03;1.02;;;6.60;99.90;;;;;;5044942;28;20029;-74
2024/01/06 06:35:55;;;;;;;3.97;1.40;;;6.50;99.90;;;;;;5052069;28;20547;-75
2024/01/06 06:38:21;;;;;;;3.08;0.90;;;6.50;99.90;;;;;;5047350;28;20096;-75
2024/01/06 06:40:47;;;;;;;4.68;1.50;;;6.50;99.90;;;;;;5046725;28;20052;-75
2024/01/06 06:43:13;;;;;;;5.65;1.23;;;6.50;99.90;;;;;;5047140;28;20052;-75
2024/01/06 06:45:44;;;;;;;3.72;1.40;;;6.50;99.90;;;;;;5044686;28;20021;-75
2024/01/06 06:48:10;;;;;;;7.13;1.90;;;6.50;99.90;;;;;;5048215;28;20032;-76
2024/01/06 06:50:36;;;;;;;7.32;1.52;;;6.50;99.90;;;;;;5050636;28;20357;-75
2024/01/06 06:53:02;;;;;;;6.40;1.58;;;6.50;99.90;;;;;;5049101;28;20025;-74
2024/01/06 06:55:28;;;;;;;4.47;1.30;;;6.50;99.90;;;;;;5050307;28;20091;-75
2024/01/06 06:57:53;;;;;;;7.95;1.65;;;6.50;99.90;;;;;;5047893;28;20029;-73
2024/01/06 07:00:22;;;;;;;4.53;1.20;;;6.50;99.90;;;;;;5046739;28;20089;-74
2024/01/06 07:02:48;;;;;;;4.03;1.10;;;6.50;99.90;;;;;;5047910;28;20029;-75
2024/01/06 07:05:13;;;;;;;4.70;1.50;;;6.50;99.90;;;;;;5049372;28;20025;-75
2024/01/06 07:07:46;;;;;;;6.50;1.70;;;6.50;99.90;;;;;;5047765;28;20068;-74
2024/01/06 07:10:15;;;;;;;4.65;1.38;;;6.50;99.90;;;;;;5048846;28;20027;-74
2024/01/06 07:12:49;;;;;;;3.95;1.10;;;6.50;99.90;;;;;;5043199;28;21765;-75
2024/01/06 07:15:24;;;;;;;3.63;1.27;;;6.50;99.90;;;;;;5041091;28;20047;-75
2024/01/06 07:17:56;;;;;;;4.85;1.63;;;6.50;99.90;;;;;;5047019;28;20025;-75
2024/01/06 07:20:30;;;;;;;5.13;1.05;;;6.40;99.90;;;;;;5048957;28;20017;-74
2024/01/06 07:22:56;;;;;;;5.10;1.50;;;6.50;99.90;;;;;;5048883;28;20044;-75
2024/01/06 07:25:22;;;;;;;5.82;0.95;;;6.50;99.90;;;;;;5041463;28;20108;-75
2024/01/06 07:27:56;;;;;;;5.70;1.52;;;6.50;99.90;;;;;;5054038;28;20021;-74
2024/01/06 07:30:28;;;;;;;4.07;1.48;;;6.50;99.90;;;;;;5054624;28;20395;-75
2024/01/06 07:33:00;;;;;;;7.75;1.48;;;6.40;99.90;;;;;;5042027;28;20037;-74
2024/01/06 07:35:31;;;;;;;4.45;1.60;;;6.40;99.90;;;;;;5048381;28;20030;-73
2024/01/06 07:37:57;;;;;;;6.38;2.00;;;6.40;99.90;;;;;;5050746;28;20040;-73
2024/01/06 07:40:25;;;;;;;5.28;1.60;;;6.40;99.90;;;;;;5050951;28;20096;-73
2024/01/06 07:42:51;;;;;;;6.68;1.75;;;6.40;99.90;;;;;;5052448;28;20051;-74
2024/01/06 07:45:17;;;;;;;4.47;1.50;;;6.40;99.90;;;;;;5050485;28;20013;-73
2024/01/06 07:47:42;;;;;;;6.90;2.13;;;6.40;99.90;;;;;;5049937;28;20036;-74
2024/01/06 07:50:11;;;;;;;5.15;1.40;;;6.40;99.90;;;;;;5049134;28;20013;-74
2024/01/06 07:52:39;;;;;;;6.82;2.25;;;6.40;99.90;;;;;;5047358;28;20029;-73
2024/01/06 07:55:05;;;;;;;6.28;2.17;;;6.40;99.90;;;;;;5049259;28;20498;-75
2024/01/06 07:57:31;;;;;;;6.60;1.92;;;6.40;99.90;;;;;;5054700;28;20053;-73
2024/01/06 08:00:03;;;;;;;8.23;1.90;;;6.40;99.90;;;;;;5049636;28;20025;-73
2024/01/06 08:02:28;;;;;;;6.22;2.20;;;6.40;99.90;;;;;;5049509;28;20483;-73
2024/01/06 08:04:55;;;;;;;5.03;1.55;;;6.40;99.90;;;;;;5046862;28;20112;-74
2024/01/06 08:07:21;;;;;;;4.68;1.67;;;6.40;99.90;;;;;;5047575;28;20082;-74
2024/01/06 08:09:47;;;;;;;4.60;1.52;;;6.40;99.90;;;;;;5048446;28;20017;-73
2024/01/06 08:12:16;;;;;;;7.32;1.70;;;6.40;99.90;;;;;;5050791;28;20066;-74
2024/01/06 08:14:41;;;;;;;2.80;1.50;;;6.40;99.90;;;;;;5046579;28;20071;-73
2024/01/06 08:17:10;;;;;;;2.22;1.38;;;6.50;99.90;;;;;;5046003;28;20033;-73
2024/01/06 08:19:41;;;;;;;5.57;1.88;;;6.50;99.90;;;;;;5048517;28;20511;-73
2024/01/06 08:22:16;;;;;;;4.82;1.75;;;6.50;99.90;;;;;;5044815;28;20429;-74
2024/01/06 08:24:41;;;;;;;5.47;2.17;;;6.50;99.90;;;;;;5048334;28;20561;-72
2024/01/06 08:27:07;;;;;;;5.35;1.80;;;6.50;99.90;;;;;;5046722;28;20059;-73
2024/01/06 08:29:35;;;;;;;4.95;1.90;;;6.50;99.90;;;;;;5047258;28;20035;-73
2024/01/06 08:32:03;;;;;;;4.68;1.98;;;6.50;99.90;;;;;;5051808;28;20399;-76
2024/01/06 08:34:28;;;;;;;7.68;2.22;;;6.50;99.90;;;;;;5050454;28;20029;-76
2024/01/06 08:36:54;;;;;;;4.90;2.08;;;6.50;99.90;;;;;;5048796;28;20025;-76
2024/01/06 08:39:21;;;;;;;6.10;2.15;;;6.50;99.90;;;;;;5052870;28;20037;-77
2024/01/06 08:41:49;;;;;;;3.53;1.73;;;6.50;99.90;;;;;;5052622;28;20031;-77
2024/01/06 08:44:15;;;;;;;5.72;2.10;;;6.60;99.90;;;;;;5048493;28;20511;-77
2024/01/06 08:46:47;;;;;;;6.22;1.67;;;6.60;99.90;;;;;;5021948;28;20033;-76
2024/01/06 08:49:12;;;;;;;7.03;2.30;;;6.60;99.90;;;;;;5049110;28;20096;-76
2024/01/06 08:51:41;;;;;;;5.65;2.17;;;6.60;99.90;;;;;;5049288;28;20444;-76
2024/01/06 08:54:09;;;;;;;8.93;2.65;;;6.60;99.90;;;;;;5050447;28;20495;-76
2024/01/06 08:56:35;;;;;;;3.40;1.77;;;6.60;99.90;;;;;;5051608;28;20095;-77
2024/01/06 08:59:04;;;;;;;7.40;2.75;;;6.70;99.90;;;;;;5050645;28;20025;-76
2024/01/06 09:01:31;;;;;;;3.80;2.03;;;6.70;99.90;;;;;;5051963;28;20534;-76
2024/01/06 09:03:57;;;;;;;3.03;1.42;;;6.70;99.90;;;;;;5051122;28;20100;-76
2024/01/06 09:06:26;;;;;;;7.88;1.80;;;6.70;99.90;;;;;;5050957;28;20021;-76
2024/01/06 09:09:05;;;;;;;4.43;1.80;;;6.70;99.90;;;;;;5053686;28;20048;-79
2024/01/06 09:11:30;;;;;;;3.95;1.40;;;6.70;99.90;;;;;;5050290;28;20503;-76
2024/01/06 09:13:56;;;;;;;4.63;1.40;;;6.70;99.90;;;;;;5049075;28;20072;-76
2024/01/06 09:16:24;;;;;;;6.10;1.30;;;6.70;99.90;;;;;;5047285;28;20037;-76
2024/01/06 09:18:50;;;;;;;4.45;1.33;;;6.70;99.90;;;;;;5050664;28;20507;-77
2024/01/06 09:21:17;;;;;;;4.22;1.70;;;6.70;99.90;;;;;;5050623;28;20021;-78
2024/01/06 09:23:43;;;;;;;5.55;1.77;;;6.70;99.90;;;;;;5046587;28;20021;-78
2024/01/06 09:26:08;;;;;;;3.40;1.50;;;6.70;99.90;;;;;;5051733;28;20025;-77
2024/01/06 09:28:34;;;;;;;5.30;1.55;;;6.70;99.90;;;;;;5048638;28;20512;-76
2024/01/06 09:31:04;;;;;;;6.28;1.60;;;6.70;99.90;;;;;;5046192;28;20078;-77
2024/01/06 09:33:33;;;;;;;4.28;2.00;;;6.70;99.90;;;;;;5049651;28;20024;-77
2024/01/06 09:35:59;;;;;;;7.93;2.17;;;6.70;99.90;;;;;;5051438;28;20021;-77
2024/01/06 09:38:25;;;;;;;4.88;1.70;;;6.70;99.90;;;;;;5051783;28;20108;-77
2024/01/06 09:40:53;;;;;;;16.17;7.75;;;6.70;99.90;;;;;;5050474;28;20024;-77
2024/01/06 09:43:19;;;;;;;9.32;4.70;;;6.70;99.90;;;;;;5056823;28;20415;-77
2024/01/06 09:45:57;;;;;;;6.15;4.25;;;6.70;99.90;;;;;;5049056;28;20097;-78
2024/01/06 09:48:30;;;;;;;4.70;2.42;;;6.70;99.90;;;;;;5053722;28;20028;-78
2024/01/06 09:51:01;;;;;;;3.88;2.20;;;6.80;99.90;;;;;;5050308;28;20049;-78
2024/01/06 09:53:33;;;;;;;3.60;1.73;;;6.80;99.90;;;;;;5049697;28;20446;-77
2024/01/06 09:55:59;;;;;;;5.18;1.63;;;6.80;99.90;;;;;;5053366;28;20037;-78
2024/01/06 09:58:29;;;;;;;4.65;2.15;;;6.80;99.90;;;;;;5049711;28;20109;-77
2024/01/06 10:00:56;;;;;;;4.00;1.50;;;6.80;99.90;;;;;;5052510;28;20047;-77
2024/01/06 10:03:21;;;;;;;6.25;2.03;;;6.80;99.90;;;;;;5049051;28;20062;-77
2024/01/06 10:05:48;;;;;;;5.32;1.70;;;6.80;99.90;;;;;;5048803;28;20084;-77
2024/01/06 10:08:14;;;;;;;4.57;1.45;;;6.80;99.90;;;;;;5047951;28;20643;-77
2024/01/06 10:10:44;;;;;;;4.32;1.90;;;6.80;99.90;;;;;;5049833;28;20099;-78
2024/01/06 10:13:10;;;;;;;5.18;1.63;;;6.80;99.90;;;;;;5045842;28;20063;-77
2024/01/06 10:15:36;;;;;;;4.13;2.03;;;6.80;99.90;;;;;;5047031;28;20100;-78
2024/01/06 10:18:08;;;;;;;6.35;2.13;;;6.90;99.90;;;;;;5049537;28;20029;-77
2024/01/06 10:20:33;;;;;;;3.75;2.20;;;6.90;99.90;;;;;;5048989;28;20028;-77
2024/01/06 10:23:14;;;;;;;5.43;1.83;;;6.90;99.90;;;;;;5046443;28;20025;-77
2024/01/06 10:25:43;;;;;;;7.72;1.58;;;6.90;99.90;;;;;;5046373;28;20360;-77
2024/01/06 10:28:13;;;;;;;5.18;1.73;;;6.90;99.90;;;;;;5047751;28;20127;-77
2024/01/06 10:30:39;;;;;;;3.15;1.77;;;7.00;99.90;;;;;;5047224;28;20063;-77
2024/01/06 10:33:14;;;;;;;3.80;1.70;;;7.00;99.90;;;;;;5046817;28;20041;-77
2024/01/06 10:35:43;;;;;;;8.15;3.70;;;6.90;99.90;;;;;;5050045;28;20486;-77
2024/01/06 10:38:11;;;;;;;5.18;2.90;;;6.90;99.90;;;;;;5045323;28;20021;-77
2024/01/06 10:40:40;;;;;;;6.00;1.98;;;7.00;99.90;;;;;;5045686;28;20480;-77
2024/01/06 10:43:09;;;;;;;2.30;1.40;;;7.00;99.90;;;;;;5045273;28;20021;-77
2024/01/06 10:45:36;;;;;;;4.03;1.70;;;7.00;99.90;;;;;;5046328;28;20570;-77
2024/01/06 10:48:21;;;;;;;4.57;1.52;;;7.00;99.90;;;;;;5045101;28;20025;-77
2024/01/06 10:50:49;;;;;;;5.28;1.50;;;7.00;99.90;;;;;;5046359;28;20051;-77
2024/01/06 10:53:17;;;;;;;4.53;1.60;;;7.00;99.90;;;;;;5044013;28;20399;-77
2024/01/06 10:55:50;;;;;;;5.40;2.00;;;7.00;99.90;;;;;;5042287;28;20062;-77
2024/01/06 10:58:17;;;;;;;2.23;1.30;;;7.00;99.90;;;;;;5043910;28;20056;-77
2024/01/06 11:00:49;;;;;;;2.85;1.20;;;6.90;99.90;;;;;;5049487;28;20419;-77
2024/01/06 11:03:15;;;;;;;4.25;1.40;;;6.90;99.90;;;;;;5049741;28;20100;-77
2024/01/06 11:05:44;;;;;;;2.47;1.48;;;6.90;99.90;;;;;;5049326;28;20104;-77
2024/01/06 11:08:11;;;;;;;2.78;1.40;;;6.90;99.90;;;;;;5051706;28;20534;-77
2024/01/06 11:10:38;;;;;;;3.75;1.55;;;6.80;99.90;;;;;;5060031;28;20487;-77
2024/01/06 11:13:13;;;;;;;3.83;1.10;;;6.90;99.90;;;;;;5051770;28;20504;-77
2024/01/06 11:15:49;;;;;;;3.83;1.13;;;6.90;99.90;;;;;;5050978;28;20032;-77
2024/01/06 11:18:33;;;;;;;2.40;1.27;;;6.90;99.90;;;;;;5047836;28;20026;-77
2024/01/06 11:21:21;;;;;;;4.90;1.88;;;7.00;99.90;;;;;;5046700;28;20028;-77
2024/01/06 11:24:17;;;;;;;4.82;1.50;;;6.90;99.90;;;;;;5046676;28;20031;-77
2024/01/06 11:26:44;;;;;;;3.20;2.15;;;6.90;99.90;;;;;;5052964;28;20029;-77
2024/01/06 11:29:13;;;;;;;6.80;3.35;;;7.00;99.90;;;;;;5050197;28;20028;-77
2024/01/06 11:32:05;;;;;;;6.30;4.00;;;7.00;99.90;;;;;;5049247;28;20029;-77
2024/01/06 11:34:31;;;;;;;14.32;8.45;;;7.00;99.90;;;;;;5058377;28;20013;-77
2024/01/06 11:36:57;;;;;;;4.47;2.17;;;6.90;99.90;;;;;;5050604;28;20036;-77
2024/01/06 11:39:50;;;;;;;5.85;2.97;;;6.90;99.90;;;;;;5046468;28;20032;-77
2024/01/06 11:42:15;;;;;;;6.55;3.42;;;7.00;99.90;;;;;;5047762;28;20041;-76
2024/01/06 11:44:45;;;;;;;5.90;2.17;;;6.90;99.90;;;;;;5051575;28;20174;-77
2024/01/06 11:47:15;;;;;;;5.18;1.80;;;6.90;99.90;;;;;;5049193;28;20039;-77
2024/01/06 11:49:44;;;;;;;5.50;2.60;;;7.00;99.90;;;;;;5046315;28;20032;-77
2024/01/06 11:52:10;;;;;;;6.85;3.67;;;7.00;99.90;;;;;;5049745;28;20023;-77
2024/01/06 11:54:36;;;;;;;7.82;3.15;;;7.10;99.90;;;;;;5049763;28;20077;-77
2024/01/06 11:57:07;;;;;;;7.85;4.72;;;7.10;99.90;;;;;;5049633;28;20395;-77
2024/01/06 11:59:33;;;;;;;9.43;3.85;;;7.10;99.90;;;;;;5049617;28;20028;-77
2024/01/06 12:01:59;;;;;;;2.65;1.50;;;7.10;99.90;;;;;;5048469;28;20036;-76
2024/01/06 12:04:28;;;;;;;6.13;2.80;;;7.00;99.90;;;;;;5051679;28;20483;-77
2024/01/06 12:07:13;;;;;;;5.88;2.88;;;7.10;99.90;;;;;;5049013;28;20021;-77
2024/01/06 12:09:38;;;;;;;;;;;7.10;99.90;;;;;;5047511;28;20059;-77
2024/01/06 12:12:05;;;;;;;6.05;2.88;;;7.10;99.90;;;;;;5046651;28;19912;-77
2024/01/06 12:14:32;;;;;;;5.80;2.35;;;7.10;99.90;;;;;;5048528;28;20029;-77
2024/01/06 12:17:04;;;;;;;6.97;2.80;;;7.10;99.90;;;;;;5050769;28;20024;-77
2024/01/06 12:19:31;;;;;;;8.57;3.70;;;7.10;99.90;;;;;;5051129;28;20025;-77
2024/01/06 12:21:57;;;;;;;4.97;3.20;;;7.10;99.90;;;;;;5050218;28;20527;-77
2024/01/06 12:24:22;;;;;;;7.10;4.10;;;7.10;99.90;;;;;;5048070;28;20107;-77
2024/01/06 12:26:51;;;;;;;6.88;3.15;;;7.10;99.90;;;;;;5048707;28;20108;-77
2024/01/06 12:29:20;;;;;;;6.03;3.50;;;7.10;99.90;;;;;;5049412;28;20124;-77
2024/01/06 12:31:49;;;;;;;9.30;4.68;;;7.10;99.90;;;;;;5049209;28;20041;-77
2024/01/06 12:34:15;;;;;;;8.23;5.28;;;7.10;99.90;;;;;;5051045;28;20021;-77
2024/01/06 12:36:44;;;;;;;6.07;2.72;;;7.00;99.90;;;;;;5048383;28;20499;-77
2024/01/06 12:39:13;;;;;;;7.40;2.85;;;7.10;99.90;;;;;;5048647;28;20032;-77
2024/01/06 12:41:42;;;;;;;6.65;3.50;;;7.00;99.90;;;;;;5047732;28;20408;-77
2024/01/06 12:44:20;;;;;;;7.95;3.35;;;7.00;99.90;;;;;;5047183;28;20027;-77
2024/01/06 12:46:49;;;;;;;6.47;3.65;;;7.00;99.90;;;;;;5046323;28;20029;-77
2024/01/06 12:49:15;;;;;;;6.30;3.63;;;7.00;99.90;;;;;;5047805;28;20391;-77
2024/01/06 12:51:44;;;;;;;6.75;4.38;;;7.00;99.90;;;;;;5048570;28;20028;-77
2024/01/06 12:54:09;;;;;;;9.57;3.30;;;7.00;99.90;;;;;;5046797;28;20037;-77
2024/01/06 12:56:35;;;;;;;13.60;5.78;;;7.00;99.90;;;;;;5050598;28;20487;-77
2024/01/06 12:59:01;;;;;;;17.73;8.18;;;6.90;99.90;;;;;;5049445;28;20028;-77